createdAt,value
2022-10-06T00:03:31.686Z,63.82
2022-10-06T00:08:36.912Z,63.81
2022-10-06T00:13:40.356Z,63.84
2022-10-06T00:18:43.178Z,63.58
2022-10-06T00:23:45.718Z,63.95
2022-10-06T00:28:48.944Z,64.49
2022-10-06T00:33:51.670Z,63.97
2022-10-06T00:38:54.087Z,63.98
2022-10-06T00:43:57.924Z,64.03
2022-10-06T00:49:23.487Z,64.30
2022-10-06T00:54:27.332Z,64.27
2022-10-06T00:59:29.761Z,64.32
2022-10-06T01:04:38.036Z,64.18
2022-10-06T01:09:40.621Z,64.41
2022-10-06T01:14:43.275Z,63.94
2022-10-06T01:19:52.548Z,64.44
2022-10-06T01:24:55.704Z,64.92
2022-10-06T01:29:59.597Z,65.11
2022-10-06T01:35:02.337Z,64.52
2022-10-06T01:40:05.345Z,64.64
2022-10-06T01:45:08.333Z,64.55
2022-10-06T01:50:10.762Z,65.01
2022-10-06T01:55:14.525Z,64.12
2022-10-06T02:00:17.822Z,64.83
2022-10-06T02:05:20.333Z,65.06
2022-10-06T02:10:24.176Z,65.04
2022-10-06T02:15:28.099Z,65.16
2022-10-06T02:20:30.525Z,65.19
2022-10-06T02:25:33.522Z,65.38
2022-10-06T02:30:36.261Z,65.49
2022-10-06T02:35:38.755Z,65.02
2022-10-06T02:40:41.451Z,64.95
2022-10-06T02:45:43.936Z,65.84
2022-10-06T02:50:56.941Z,65.63
2022-10-06T02:56:20.837Z,65.42
2022-10-06T03:01:29.054Z,65.63
2022-10-06T03:06:31.889Z,65.63
2022-10-06T03:11:36.873Z,65.11
2022-10-06T03:16:41.751Z,65.69
2022-10-06T03:21:44.529Z,64.94
2022-10-06T03:26:47.877Z,64.75
2022-10-06T03:31:50.455Z,65.19
2022-10-06T03:36:53.095Z,65.59
2022-10-06T03:41:55.549Z,65.39
2022-10-06T03:46:58.077Z,65.22
2022-10-06T03:52:00.835Z,65.51
2022-10-06T03:57:03.537Z,65.04
2022-10-06T04:02:06.419Z,65.19
2022-10-06T04:07:09.379Z,65.62
2022-10-06T04:12:12.958Z,65.38
2022-10-06T04:17:15.433Z,65.61
2022-10-06T04:22:17.853Z,65.48
2022-10-06T04:27:41.226Z,65.29
2022-10-06T04:32:44.101Z,65.90
2022-10-06T04:37:50.073Z,65.60
2022-10-06T04:42:52.631Z,66.58
2022-10-06T04:47:56.257Z,66.40
2022-10-06T04:52:58.826Z,66.53
2022-10-06T04:58:01.620Z,66.89
2022-10-06T05:03:04.437Z,66.35
2022-10-06T05:08:06.993Z,66.77
2022-10-06T05:13:12.678Z,66.43
2022-10-06T05:18:15.146Z,66.30
2022-10-06T05:23:18.713Z,66.77
2022-10-06T05:28:22.602Z,66.57
2022-10-06T05:33:27.114Z,66.41
2022-10-06T05:38:30.283Z,66.07
2022-10-06T05:43:34.590Z,66.08
2022-10-06T05:48:38.407Z,65.91
2022-10-06T05:53:41.297Z,65.65
2022-10-06T05:58:46.513Z,65.67
2022-10-06T06:03:54.522Z,65.76
2022-10-06T06:09:17.102Z,65.65
2022-10-06T06:14:40.417Z,66.00
2022-10-06T06:19:42.982Z,66.34
2022-10-06T06:24:45.576Z,66.28
2022-10-06T06:29:48.273Z,65.92
2022-10-06T06:34:52.690Z,66.28
2022-10-06T06:39:55.135Z,65.78
2022-10-06T06:44:57.617Z,65.60
2022-10-06T06:50:01.132Z,65.97
2022-10-06T06:55:03.968Z,67.36
2022-10-06T07:00:07.916Z,67.22
2022-10-06T07:05:13.148Z,64.55
2022-10-06T07:10:15.863Z,63.40
2022-10-06T07:15:36.873Z,64.47
2022-10-06T07:20:58.356Z,65.10
2022-10-06T07:26:01.454Z,64.60
2022-10-06T07:31:04.257Z,62.54
2022-10-06T07:36:06.775Z,63.33
2022-10-06T07:41:24.655Z,62.39
2022-10-06T07:46:27.270Z,62.10
2022-10-06T07:51:29.852Z,60.95
2022-10-06T07:56:32.535Z,61.03
2022-10-06T08:01:35.002Z,58.69
2022-10-06T08:06:38.449Z,62.29
2022-10-06T08:11:40.959Z,62.64
2022-10-06T08:16:43.481Z,61.66
2022-10-06T08:21:46.442Z,60.69
2022-10-06T08:26:52.087Z,59.83
2022-10-06T08:31:54.645Z,58.70
2022-10-06T08:37:19.476Z,59.87
2022-10-06T08:42:31.996Z,63.52
2022-10-06T08:47:36.071Z,60.77
2022-10-06T08:53:16.701Z,59.53
2022-10-06T08:58:45.436Z,58.57
2022-10-06T09:03:52.124Z,59.14
2022-10-06T09:09:01.577Z,62.95
2022-10-06T09:14:33.173Z,61.43
2022-10-06T09:19:53.962Z,56.93
2022-10-06T09:25:17.112Z,56.99
2022-10-06T09:30:20.060Z,60.29
2022-10-06T09:35:26.493Z,63.45
2022-10-06T09:40:50.274Z,60.07
2022-10-06T09:45:54.708Z,56.85
2022-10-06T09:51:17.650Z,60.17
2022-10-06T09:56:20.199Z,62.18
2022-10-06T10:01:27.952Z,57.37
2022-10-06T10:06:32.397Z,58.50
2022-10-06T10:11:53.257Z,60.66
2022-10-06T10:16:55.842Z,62.96
2022-10-06T10:21:59.787Z,59.01
2022-10-06T10:27:22.389Z,58.39
2022-10-06T10:32:30.017Z,59.87
2022-10-06T10:37:40.727Z,61.06
2022-10-06T10:43:07.034Z,61.11
2022-10-06T10:48:23.138Z,56.79
2022-10-06T10:53:40.283Z,57.05
2022-10-06T10:58:49.032Z,57.61
2022-10-06T11:03:59.159Z,58.37
2022-10-06T11:09:07.268Z,57.36
2022-10-06T11:14:25.586Z,58.44
2022-10-06T11:19:41.230Z,58.81
2022-10-06T11:25:19.233Z,61.09
2022-10-06T11:30:26.961Z,60.85
2022-10-06T11:35:37.579Z,60.68
2022-10-06T11:40:39.936Z,61.82
2022-10-06T11:46:01.598Z,63.50
2022-10-06T11:51:23.723Z,55.94
2022-10-06T11:56:44.973Z,55.48
2022-10-06T12:01:48.112Z,56.14
2022-10-06T12:06:50.627Z,57.98
2022-10-06T12:11:54.039Z,58.17
2022-10-06T12:17:18.325Z,59.35
2022-10-06T12:22:31.173Z,59.55
2022-10-06T12:27:58.995Z,58.71
2022-10-06T12:33:05.602Z,58.63
2022-10-06T12:38:45.932Z,58.17
2022-10-06T12:43:53.911Z,57.27
2022-10-06T12:49:04.635Z,57.57
2022-10-06T12:54:28.538Z,57.40
2022-10-06T12:59:38.369Z,57.60
2022-10-06T13:04:44.648Z,56.09
2022-10-06T13:09:50.879Z,56.79
2022-10-06T13:15:18.721Z,55.13
2022-10-06T13:20:42.279Z,56.10
2022-10-06T13:25:48.942Z,54.75
2022-10-06T13:30:53.968Z,54.69
2022-10-06T13:35:57.799Z,55.69
2022-10-06T13:41:06.467Z,54.88
2022-10-06T13:46:16.306Z,54.08
2022-10-06T13:51:22.643Z,53.54
2022-10-06T14:01:32.567Z,53.20
2022-10-06T14:06:35.336Z,52.32
2022-10-06T14:11:37.830Z,53.78
2022-10-06T14:16:45.917Z,53.82
2022-10-06T14:21:48.381Z,51.66
2022-10-06T14:26:57.289Z,50.90
2022-10-06T14:32:14.343Z,51.28
2022-10-06T14:37:17.061Z,50.73
2022-10-06T14:42:24.574Z,51.71
2022-10-06T14:47:27.677Z,51.56
2022-10-06T14:52:30.828Z,50.35
2022-10-06T14:57:35.433Z,50.71
2022-10-06T15:02:38.254Z,50.99
2022-10-06T15:08:01.288Z,51.32
2022-10-06T15:13:06.418Z,51.91
2022-10-06T15:18:09.104Z,51.82
2022-10-06T15:23:11.543Z,52.13
2022-10-06T15:28:32.556Z,52.46
2022-10-06T15:33:36.574Z,52.67
2022-10-06T15:38:39.053Z,53.11
2022-10-06T15:44:02.436Z,53.50
2022-10-06T15:49:06.415Z,53.91
2022-10-06T15:54:10.860Z,54.27
2022-10-06T15:59:14.316Z,55.16
2022-10-06T16:04:42.694Z,55.88
2022-10-06T16:09:47.728Z,56.15
2022-10-06T16:14:50.597Z,57.07
2022-10-06T16:19:53.367Z,57.86
2022-10-06T16:24:55.848Z,58.07
2022-10-06T16:29:58.372Z,58.58
2022-10-06T16:35:01.801Z,59.39
2022-10-06T16:40:05.745Z,60.01
2022-10-06T16:45:10.295Z,60.22
2022-10-06T16:50:18.038Z,60.66
2022-10-06T16:55:20.585Z,61.24
2022-10-06T17:00:23.437Z,67.26
2022-10-06T17:05:27.024Z,66.88
2022-10-06T17:10:30.207Z,63.00
2022-10-06T17:15:33.766Z,57.78
2022-10-06T17:20:36.272Z,56.74
2022-10-06T17:25:40.643Z,57.70
2022-10-06T17:30:51.981Z,58.62
2022-10-06T17:35:54.981Z,59.69
2022-10-06T17:40:57.522Z,60.53
2022-10-06T17:46:04.334Z,65.02
2022-10-06T17:51:08.538Z,67.01
2022-10-06T17:56:12.595Z,63.78
2022-10-06T18:01:18.977Z,61.34
2022-10-06T18:06:24.132Z,57.38
2022-10-06T18:11:33.255Z,57.09
2022-10-06T18:16:39.639Z,58.23
2022-10-06T18:21:44.516Z,59.19
2022-10-06T18:26:49.283Z,60.29
2022-10-06T18:31:53.537Z,65.54
2022-10-06T18:36:56.162Z,66.83
2022-10-06T18:42:02.745Z,63.57
2022-10-06T18:47:24.674Z,60.99
2022-10-06T18:52:27.127Z,57.33
2022-10-06T18:57:29.568Z,57.03
2022-10-06T19:02:32.292Z,58.95
2022-10-06T19:07:35.011Z,60.13
2022-10-06T19:12:37.457Z,63.87
2022-10-06T19:17:41.045Z,66.57
2022-10-06T19:22:43.771Z,64.30
2022-10-06T19:27:46.684Z,63.21
2022-10-06T19:32:50.097Z,62.11
2022-10-06T19:37:52.503Z,61.67
2022-10-06T19:42:55.077Z,61.09
2022-10-06T19:47:57.971Z,60.33
2022-10-06T19:53:00.408Z,57.51
2022-10-06T19:58:03.646Z,57.80
2022-10-06T20:03:07.518Z,58.87
2022-10-06T20:08:10.000Z,64.18
2022-10-06T20:13:12.442Z,66.38
2022-10-06T20:18:15.848Z,64.56
2022-10-06T20:23:19.024Z,62.68
2022-10-06T20:28:21.539Z,61.30
2022-10-06T20:33:24.081Z,59.65
2022-10-06T20:38:46.467Z,56.11
2022-10-06T20:43:49.699Z,56.44
2022-10-06T20:48:52.143Z,58.51
2022-10-06T20:53:54.559Z,64.53
2022-10-06T20:58:57.732Z,65.28
2022-10-06T21:04:00.231Z,63.22
2022-10-06T21:09:02.697Z,61.34
2022-10-06T21:14:10.256Z,60.24
2022-10-06T21:19:15.295Z,57.51
2022-10-06T21:24:20.511Z,57.58
2022-10-06T21:29:23.040Z,59.25
2022-10-06T21:34:25.481Z,64.35
2022-10-06T21:39:27.977Z,66.64
2022-10-06T21:44:30.421Z,65.01
2022-10-06T21:49:32.878Z,63.31
2022-10-06T21:54:35.664Z,61.53
2022-10-06T21:59:38.112Z,60.91
2022-10-06T22:04:41.687Z,60.75
2022-10-06T22:09:44.150Z,57.76
2022-10-06T22:14:46.615Z,58.04
2022-10-06T22:19:49.047Z,60.10
2022-10-06T22:24:51.765Z,65.40
2022-10-06T22:29:54.518Z,66.81
2022-10-06T22:34:57.343Z,65.33
2022-10-06T22:40:02.004Z,63.83
2022-10-06T22:45:08.191Z,63.49
2022-10-06T22:50:10.635Z,62.56
2022-10-06T22:55:13.413Z,61.70
2022-10-06T23:00:15.998Z,61.35
2022-10-06T23:05:18.463Z,61.15
2022-10-06T23:10:21.469Z,60.59
2022-10-06T23:15:24.924Z,60.22
2022-10-06T23:20:27.629Z,59.85
2022-10-06T23:25:30.089Z,57.49
2022-10-06T23:30:34.889Z,58.53
2022-10-06T23:35:37.335Z,63.95
2022-10-06T23:40:39.889Z,65.54
2022-10-06T23:45:42.863Z,64.62
2022-10-06T23:51:05.808Z,63.76
2022-10-06T23:56:09.489Z,62.83
